sensor_id;sensor_type;location;lat;lon;timestamp;P1;durP1;ratioP1;P2;durP2;ratioP2
55869;SDS011;41790;50.940;4.560;2024-01-30T00:01:40;3.85;;;1.80;;
55869;SDS011;41790;50.940;4.560;2024-01-30T00:04:06;5.40;;;1.65;;
55869;SDS011;41790;50.940;4.560;2024-01-30T00:06:32;2.22;;;1.48;;
55869;SDS011;41790;50.940;4.560;2024-01-30T00:08:57;1.83;;;1.40;;
55869;SDS011;41790;50.940;4.560;2024-01-30T00:11:23;3.15;;;1.75;;
55869;SDS011;41790;50.940;4.560;2024-01-30T00:13:51;2.00;;;1.60;;
55869;SDS011;41790;50.940;4.560;2024-01-30T00:16:21;2.53;;;1.90;;
55869;SDS011;41790;50.940;4.560;2024-01-30T00:18:47;1.77;;;1.33;;
55869;SDS011;41790;50.940;4.560;2024-01-30T00:21:13;2.72;;;1.70;;
55869;SDS011;41790;50.940;4.560;2024-01-30T00:23:39;2.33;;;1.60;;
55869;SDS011;41790;50.940;4.560;2024-01-30T00:26:05;2.58;;;1.48;;
55869;SDS011;41790;50.940;4.560;2024-01-30T00:28:31;1.50;;;1.40;;
55869;SDS011;41790;50.940;4.560;2024-01-30T00:30:57;3.92;;;1.90;;
55869;SDS011;41790;50.940;4.560;2024-01-30T00:33:22;1.63;;;1.48;;
55869;SDS011;41790;50.940;4.560;2024-01-30T00:35:48;1.45;;;1.30;;
55869;SDS011;41790;50.940;4.560;2024-01-30T00:38:14;1.45;;;1.25;;
55869;SDS011;41790;50.940;4.560;2024-01-30T00:40:40;2.35;;;1.52;;
55869;SDS011;41790;50.940;4.560;2024-01-30T00:43:06;1.70;;;1.48;;
55869;SDS011;41790;50.940;4.560;2024-01-30T00:45:32;1.83;;;1.40;;
55869;SDS011;41790;50.940;4.560;2024-01-30T00:47:57;2.50;;;1.35;;
55869;SDS011;41790;50.940;4.560;2024-01-30T00:50:23;2.42;;;1.85;;
55869;SDS011;41790;50.940;4.560;2024-01-30T00:52:49;2.50;;;1.80;;
55869;SDS011;41790;50.940;4.560;2024-01-30T00:55:15;2.45;;;1.73;;
55869;SDS011;41790;50.940;4.560;2024-01-30T00:57:41;1.90;;;1.67;;
55869;SDS011;41790;50.940;4.560;2024-01-30T01:00:07;2.25;;;1.73;;
55869;SDS011;41790;50.940;4.560;2024-01-30T01:02:37;2.28;;;1.63;;
55869;SDS011;41790;50.940;4.560;2024-01-30T01:05:04;4.25;;;2.22;;
55869;SDS011;41790;50.940;4.560;2024-01-30T01:07:30;2.47;;;1.50;;
55869;SDS011;41790;50.940;4.560;2024-01-30T01:09:56;2.80;;;1.55;;
55869;SDS011;41790;50.940;4.560;2024-01-30T01:12:22;1.63;;;1.20;;
55869;SDS011;41790;50.940;4.560;2024-01-30T01:14:48;2.03;;;1.55;;
55869;SDS011;41790;50.940;4.560;2024-01-30T01:17:14;2.95;;;1.48;;
55869;SDS011;41790;50.940;4.560;2024-01-30T01:19:39;2.00;;;1.65;;
55869;SDS011;41790;50.940;4.560;2024-01-30T01:22:05;3.65;;;1.42;;
55869;SDS011;41790;50.940;4.560;2024-01-30T01:24:31;2.67;;;1.63;;
55869;SDS011;41790;50.940;4.560;2024-01-30T01:27:00;1.90;;;1.45;;
55869;SDS011;41790;50.940;4.560;2024-01-30T01:29:26;2.00;;;1.35;;
55869;SDS011;41790;50.940;4.560;2024-01-30T01:31:57;2.50;;;1.38;;
55869;SDS011;41790;50.940;4.560;2024-01-30T01:34:23;3.72;;;1.80;;
55869;SDS011;41790;50.940;4.560;2024-01-30T01:36:49;2.92;;;1.60;;
55869;SDS011;41790;50.940;4.560;2024-01-30T01:39:15;2.78;;;1.70;;
55869;SDS011;41790;50.940;4.560;2024-01-30T01:41:42;3.60;;;2.03;;
55869;SDS011;41790;50.940;4.560;2024-01-30T01:44:08;3.90;;;1.23;;
55869;SDS011;41790;50.940;4.560;2024-01-30T01:46:34;1.73;;;1.25;;
55869;SDS011;41790;50.940;4.560;2024-01-30T01:49:01;1.33;;;1.20;;
55869;SDS011;41790;50.940;4.560;2024-01-30T01:51:29;2.10;;;1.67;;
55869;SDS011;41790;50.940;4.560;2024-01-30T01:53:58;1.58;;;1.45;;
55869;SDS011;41790;50.940;4.560;2024-01-30T01:56:27;2.30;;;1.83;;
55869;SDS011;41790;50.940;4.560;2024-01-30T01:58:54;3.13;;;1.58;;
55869;SDS011;41790;50.940;4.560;2024-01-30T02:01:20;2.90;;;1.92;;
55869;SDS011;41790;50.940;4.560;2024-01-30T02:03:48;2.90;;;1.98;;
55869;SDS011;41790;50.940;4.560;2024-01-30T02:06:14;1.95;;;1.65;;
55869;SDS011;41790;50.940;4.560;2024-01-30T02:08:41;1.73;;;1.40;;
55869;SDS011;41790;50.940;4.560;2024-01-30T02:11:08;1.67;;;1.48;;
55869;SDS011;41790;50.940;4.560;2024-01-30T02:13:35;1.90;;;1.58;;
55869;SDS011;41790;50.940;4.560;2024-01-30T02:16:01;1.90;;;1.50;;
55869;SDS011;41790;50.940;4.560;2024-01-30T02:18:27;1.50;;;1.33;;
55869;SDS011;41790;50.940;4.560;2024-01-30T02:20:53;1.45;;;1.23;;
55869;SDS011;41790;50.940;4.560;2024-01-30T02:23:21;1.38;;;1.25;;
55869;SDS011;41790;50.940;4.560;2024-01-30T02:25:50;4.32;;;1.63;;
55869;SDS011;41790;50.940;4.560;2024-01-30T02:28:18;1.80;;;1.40;;
55869;SDS011;41790;50.940;4.560;2024-01-30T02:30:45;2.80;;;1.77;;
55869;SDS011;41790;50.940;4.560;2024-01-30T02:33:11;2.42;;;1.63;;
55869;SDS011;41790;50.940;4.560;2024-01-30T02:35:37;1.52;;;1.08;;
55869;SDS011;41790;50.940;4.560;2024-01-30T02:38:03;1.42;;;1.17;;
55869;SDS011;41790;50.940;4.560;2024-01-30T02:40:29;3.88;;;1.50;;
55869;SDS011;41790;50.940;4.560;2024-01-30T02:42:56;1.48;;;1.23;;
55869;SDS011;41790;50.940;4.560;2024-01-30T02:45:22;1.42;;;1.25;;
55869;SDS011;41790;50.940;4.560;2024-01-30T02:47:48;1.35;;;1.20;;
55869;SDS011;41790;50.940;4.560;2024-01-30T02:50:14;1.75;;;1.27;;
55869;SDS011;41790;50.940;4.560;2024-01-30T02:52:41;1.83;;;1.30;;
55869;SDS011;41790;50.940;4.560;2024-01-30T02:55:09;1.70;;;1.40;;
55869;SDS011;41790;50.940;4.560;2024-01-30T02:57:35;1.30;;;1.10;;
55869;SDS011;41790;50.940;4.560;2024-01-30T03:00:00;1.73;;;1.20;;
55869;SDS011;41790;50.940;4.560;2024-01-30T03:02:26;1.80;;;1.27;;
55869;SDS011;41790;50.940;4.560;2024-01-30T03:04:52;1.63;;;1.45;;
55869;SDS011;41790;50.940;4.560;2024-01-30T03:07:18;2.83;;;1.17;;
55869;SDS011;41790;50.940;4.560;2024-01-30T03:09:44;1.70;;;1.20;;
55869;SDS011;41790;50.940;4.560;2024-01-30T03:12:10;1.67;;;1.17;;
55869;SDS011;41790;50.940;4.560;2024-01-30T03:14:35;1.98;;;1.50;;
55869;SDS011;41790;50.940;4.560;2024-01-30T03:17:01;3.00;;;1.45;;
55869;SDS011;41790;50.940;4.560;2024-01-30T03:19:27;2.05;;;1.38;;
55869;SDS011;41790;50.940;4.560;2024-01-30T03:21:53;2.45;;;1.30;;
55869;SDS011;41790;50.940;4.560;2024-01-30T03:24:19;1.63;;;1.52;;
55869;SDS011;41790;50.940;4.560;2024-01-30T03:26:45;1.88;;;1.65;;
55869;SDS011;41790;50.940;4.560;2024-01-30T03:29:11;1.85;;;1.35;;
55869;SDS011;41790;50.940;4.560;2024-01-30T03:31:37;3.10;;;1.88;;
55869;SDS011;41790;50.940;4.560;2024-01-30T03:34:03;1.95;;;1.63;;
55869;SDS011;41790;50.940;4.560;2024-01-30T03:36:29;1.77;;;1.42;;
55869;SDS011;41790;50.940;4.560;2024-01-30T03:38:58;1.92;;;1.42;;
55869;SDS011;41790;50.940;4.560;2024-01-30T03:41:24;1.98;;;1.63;;
55869;SDS011;41790;50.940;4.560;2024-01-30T03:43:50;4.32;;;1.50;;
55869;SDS011;41790;50.940;4.560;2024-01-30T03:46:16;2.53;;;1.63;;
55869;SDS011;41790;50.940;4.560;2024-01-30T03:48:42;1.80;;;1.35;;
55869;SDS011;41790;50.940;4.560;2024-01-30T03:51:08;2.08;;;1.80;;
55869;SDS011;41790;50.940;4.560;2024-01-30T03:53:34;2.03;;;1.55;;
55869;SDS011;41790;50.940;4.560;2024-01-30T03:56:00;2.55;;;1.65;;
55869;SDS011;41790;50.940;4.560;2024-01-30T03:58:26;1.67;;;1.30;;
55869;SDS011;41790;50.940;4.560;2024-01-30T04:00:51;5.18;;;1.55;;
55869;SDS011;41790;50.940;4.560;2024-01-30T04:03:17;3.45;;;1.45;;
55869;SDS011;41790;50.940;4.560;2024-01-30T04:05:43;1.70;;;1.48;;
55869;SDS011;41790;50.940;4.560;2024-01-30T04:08:09;2.40;;;1.40;;
55869;SDS011;41790;50.940;4.560;2024-01-30T04:10:35;1.27;;;1.17;;
55869;SDS011;41790;50.940;4.560;2024-01-30T04:13:00;1.48;;;1.38;;
55869;SDS011;41790;50.940;4.560;2024-01-30T04:15:26;2.78;;;1.17;;
55869;SDS011;41790;50.940;4.560;2024-01-30T04:17:56;1.58;;;1.30;;
55869;SDS011;41790;50.940;4.560;2024-01-30T04:20:24;2.08;;;1.35;;
55869;SDS011;41790;50.940;4.560;2024-01-30T04:22:49;2.88;;;1.45;;
55869;SDS011;41790;50.940;4.560;2024-01-30T04:25:15;1.83;;;1.33;;
55869;SDS011;41790;50.940;4.560;2024-01-30T04:27:41;1.80;;;1.30;;
55869;SDS011;41790;50.940;4.560;2024-01-30T04:30:07;1.85;;;1.40;;
55869;SDS011;41790;50.940;4.560;2024-01-30T04:32:33;1.67;;;1.40;;
55869;SDS011;41790;50.940;4.560;2024-01-30T04:34:58;1.52;;;1.25;;
55869;SDS011;41790;50.940;4.560;2024-01-30T04:37:24;2.03;;;1.35;;
55869;SDS011;41790;50.940;4.560;2024-01-30T04:39:50;1.80;;;1.42;;
55869;SDS011;41790;50.940;4.560;2024-01-30T04:42:16;1.63;;;1.38;;
55869;SDS011;41790;50.940;4.560;2024-01-30T04:44:42;1.65;;;1.13;;
55869;SDS011;41790;50.940;4.560;2024-01-30T04:47:08;1.38;;;1.25;;
55869;SDS011;41790;50.940;4.560;2024-01-30T04:49:36;2.13;;;1.65;;
55869;SDS011;41790;50.940;4.560;2024-01-30T04:52:01;1.40;;;1.20;;
55869;SDS011;41790;50.940;4.560;2024-01-30T04:54:27;1.70;;;1.35;;
55869;SDS011;41790;50.940;4.560;2024-01-30T04:56:53;3.38;;;1.05;;
55869;SDS011;41790;50.940;4.560;2024-01-30T04:59:19;2.30;;;1.10;;
55869;SDS011;41790;50.940;4.560;2024-01-30T05:01:44;1.95;;;1.23;;
55869;SDS011;41790;50.940;4.560;2024-01-30T05:04:10;2.28;;;1.67;;
55869;SDS011;41790;50.940;4.560;2024-01-30T05:06:36;3.70;;;1.73;;
55869;SDS011;41790;50.940;4.560;2024-01-30T05:09:02;2.10;;;1.50;;
55869;SDS011;41790;50.940;4.560;2024-01-30T05:11:31;1.40;;;1.30;;
55869;SDS011;41790;50.940;4.560;2024-01-30T05:14:01;2.25;;;1.15;;
55869;SDS011;41790;50.940;4.560;2024-01-30T05:16:27;1.52;;;1.25;;
55869;SDS011;41790;50.940;4.560;2024-01-30T05:18:53;1.67;;;1.42;;
55869;SDS011;41790;50.940;4.560;2024-01-30T05:21:18;1.80;;;1.45;;
55869;SDS011;41790;50.940;4.560;2024-01-30T05:23:44;1.30;;;1.20;;
55869;SDS011;41790;50.940;4.560;2024-01-30T05:26:10;1.48;;;1.27;;
55869;SDS011;41790;50.940;4.560;2024-01-30T05:28:35;3.03;;;1.38;;
55869;SDS011;41790;50.940;4.560;2024-01-30T05:31:01;1.45;;;1.33;;
55869;SDS011;41790;50.940;4.560;2024-01-30T05:33:27;1.48;;;1.23;;
55869;SDS011;41790;50.940;4.560;2024-01-30T05:35:53;1.80;;;1.40;;
55869;SDS011;41790;50.940;4.560;2024-01-30T05:38:21;1.67;;;1.25;;
55869;SDS011;41790;50.940;4.560;2024-01-30T05:40:47;1.75;;;1.35;;
55869;SDS011;41790;50.940;4.560;2024-01-30T05:43:13;0.93;;;0.88;;
55869;SDS011;41790;50.940;4.560;2024-01-30T05:45:39;1.70;;;1.33;;
55869;SDS011;41790;50.940;4.560;2024-01-30T05:48:04;1.80;;;1.45;;
55869;SDS011;41790;50.940;4.560;2024-01-30T05:50:30;2.78;;;1.25;;
55869;SDS011;41790;50.940;4.560;2024-01-30T05:52:56;3.00;;;1.40;;
55869;SDS011;41790;50.940;4.560;2024-01-30T05:55:22;2.08;;;1.08;;
55869;SDS011;41790;50.940;4.560;2024-01-30T05:57:47;1.20;;;1.10;;
55869;SDS011;41790;50.940;4.560;2024-01-30T06:00:13;2.35;;;1.45;;
55869;SDS011;41790;50.940;4.560;2024-01-30T06:02:40;2.85;;;1.33;;
55869;SDS011;41790;50.940;4.560;2024-01-30T06:05:05;1.85;;;1.40;;
55869;SDS011;41790;50.940;4.560;2024-01-30T06:07:31;1.85;;;1.25;;
55869;SDS011;41790;50.940;4.560;2024-01-30T06:09:57;1.75;;;1.35;;
55869;SDS011;41790;50.940;4.560;2024-01-30T06:12:25;2.03;;;1.52;;
55869;SDS011;41790;50.940;4.560;2024-01-30T06:14:52;1.58;;;1.40;;
55869;SDS011;41790;50.940;4.560;2024-01-30T06:17:19;1.60;;;1.23;;
55869;SDS011;41790;50.940;4.560;2024-01-30T06:19:45;2.05;;;1.23;;
55869;SDS011;41790;50.940;4.560;2024-01-30T06:22:10;2.08;;;1.63;;
55869;SDS011;41790;50.940;4.560;2024-01-30T06:24:36;2.03;;;1.65;;
55869;SDS011;41790;50.940;4.560;2024-01-30T06:27:02;1.73;;;1.27;;
55869;SDS011;41790;50.940;4.560;2024-01-30T06:29:28;2.33;;;1.67;;
55869;SDS011;41790;50.940;4.560;2024-01-30T06:31:54;5.07;;;2.17;;
55869;SDS011;41790;50.940;4.560;2024-01-30T06:34:20;2.42;;;1.67;;
55869;SDS011;41790;50.940;4.560;2024-01-30T06:36:46;4.72;;;2.60;;
55869;SDS011;41790;50.940;4.560;2024-01-30T06:39:12;3.83;;;2.42;;
55869;SDS011;41790;50.940;4.560;2024-01-30T06:41:37;3.22;;;2.03;;
55869;SDS011;41790;50.940;4.560;2024-01-30T06:44:03;2.80;;;2.33;;
55869;SDS011;41790;50.940;4.560;2024-01-30T06:46:31;3.15;;;2.38;;
55869;SDS011;41790;50.940;4.560;2024-01-30T06:48:57;2.40;;;1.90;;
55869;SDS011;41790;50.940;4.560;2024-01-30T06:51:23;3.15;;;1.75;;
55869;SDS011;41790;50.940;4.560;2024-01-30T06:53:49;4.15;;;2.50;;
55869;SDS011;41790;50.940;4.560;2024-01-30T06:56:15;2.63;;;1.70;;
55869;SDS011;41790;50.940;4.560;2024-01-30T06:58:45;3.25;;;2.38;;
55869;SDS011;41790;50.940;4.560;2024-01-30T07:01:14;4.00;;;2.08;;
55869;SDS011;41790;50.940;4.560;2024-01-30T07:03:41;2.90;;;2.03;;
55869;SDS011;41790;50.940;4.560;2024-01-30T07:06:07;3.17;;;2.13;;
55869;SDS011;41790;50.940;4.560;2024-01-30T07:08:33;3.05;;;2.10;;
55869;SDS011;41790;50.940;4.560;2024-01-30T07:10:59;2.50;;;1.77;;
55869;SDS011;41790;50.940;4.560;2024-01-30T07:13:25;3.50;;;2.33;;
55869;SDS011;41790;50.940;4.560;2024-01-30T07:15:50;2.55;;;2.10;;
55869;SDS011;41790;50.940;4.560;2024-01-30T07:18:16;2.70;;;1.98;;
55869;SDS011;41790;50.940;4.560;2024-01-30T07:20:42;2.08;;;1.70;;
55869;SDS011;41790;50.940;4.560;2024-01-30T07:23:11;2.67;;;2.28;;
55869;SDS011;41790;50.940;4.560;2024-01-30T07:25:39;3.08;;;1.90;;
55869;SDS011;41790;50.940;4.560;2024-01-30T07:28:06;5.28;;;1.92;;
55869;SDS011;41790;50.940;4.560;2024-01-30T07:30:35;2.75;;;1.95;;
55869;SDS011;41790;50.940;4.560;2024-01-30T07:33:00;2.58;;;2.00;;
55869;SDS011;41790;50.940;4.560;2024-01-30T07:35:26;4.72;;;2.42;;
55869;SDS011;41790;50.940;4.560;2024-01-30T07:37:52;5.13;;;2.03;;
55869;SDS011;41790;50.940;4.560;2024-01-30T07:40:17;4.32;;;2.13;;
55869;SDS011;41790;50.940;4.560;2024-01-30T07:42:43;4.60;;;1.92;;
55869;SDS011;41790;50.940;4.560;2024-01-30T07:45:09;3.63;;;2.10;;
55869;SDS011;41790;50.940;4.560;2024-01-30T07:47:35;2.67;;;1.67;;
55869;SDS011;41790;50.940;4.560;2024-01-30T07:50:01;2.53;;;1.95;;
55869;SDS011;41790;50.940;4.560;2024-01-30T07:52:27;4.00;;;2.38;;
55869;SDS011;41790;50.940;4.560;2024-01-30T07:54:52;3.03;;;1.92;;
55869;SDS011;41790;50.940;4.560;2024-01-30T07:57:18;3.55;;;2.40;;
55869;SDS011;41790;50.940;4.560;2024-01-30T07:59:44;4.70;;;2.50;;
55869;SDS011;41790;50.940;4.560;2024-01-30T08:02:11;3.42;;;2.40;;
55869;SDS011;41790;50.940;4.560;2024-01-30T08:04:37;5.80;;;2.70;;
55869;SDS011;41790;50.940;4.560;2024-01-30T08:07:03;3.85;;;2.65;;
55869;SDS011;41790;50.940;4.560;2024-01-30T08:09:29;3.30;;;2.05;;
55869;SDS011;41790;50.940;4.560;2024-01-30T08:11:55;3.00;;;2.00;;
55869;SDS011;41790;50.940;4.560;2024-01-30T08:14:21;3.67;;;2.10;;
55869;SDS011;41790;50.940;4.560;2024-01-30T08:16:47;3.72;;;2.72;;
55869;SDS011;41790;50.940;4.560;2024-01-30T08:19:14;3.63;;;2.33;;
55869;SDS011;41790;50.940;4.560;2024-01-30T08:21:40;3.28;;;2.10;;
55869;SDS011;41790;50.940;4.560;2024-01-30T08:24:06;4.55;;;3.00;;
55869;SDS011;41790;50.940;4.560;2024-01-30T08:26:33;3.22;;;2.33;;
55869;SDS011;41790;50.940;4.560;2024-01-30T08:28:59;2.88;;;2.13;;
55869;SDS011;41790;50.940;4.560;2024-01-30T08:31:25;5.70;;;2.35;;
55869;SDS011;41790;50.940;4.560;2024-01-30T08:33:50;2.95;;;2.05;;
55869;SDS011;41790;50.940;4.560;2024-01-30T08:36:16;3.30;;;2.25;;
55869;SDS011;41790;50.940;4.560;2024-01-30T08:38:42;3.22;;;2.15;;
55869;SDS011;41790;50.940;4.560;2024-01-30T08:41:08;8.57;;;2.25;;
55869;SDS011;41790;50.940;4.560;2024-01-30T08:43:34;5.68;;;2.90;;
55869;SDS011;41790;50.940;4.560;2024-01-30T08:46:01;5.75;;;3.08;;
55869;SDS011;41790;50.940;4.560;2024-01-30T08:48:27;3.80;;;2.40;;
55869;SDS011;41790;50.940;4.560;2024-01-30T08:50:53;5.13;;;2.33;;
55869;SDS011;41790;50.940;4.560;2024-01-30T08:53:19;3.28;;;2.05;;
55869;SDS011;41790;50.940;4.560;2024-01-30T08:55:45;2.10;;;1.73;;
55869;SDS011;41790;50.940;4.560;2024-01-30T08:58:10;5.43;;;2.13;;
55869;SDS011;41790;50.940;4.560;2024-01-30T09:00:36;4.82;;;2.70;;
55869;SDS011;41790;50.940;4.560;2024-01-30T09:03:02;6.55;;;2.65;;
55869;SDS011;41790;50.940;4.560;2024-01-30T09:05:28;5.72;;;2.70;;
55869;SDS011;41790;50.940;4.560;2024-01-30T09:07:54;4.82;;;2.20;;
55869;SDS011;41790;50.940;4.560;2024-01-30T09:10:20;6.88;;;2.65;;
55869;SDS011;41790;50.940;4.560;2024-01-30T09:12:46;4.60;;;2.75;;
55869;SDS011;41790;50.940;4.560;2024-01-30T09:15:12;6.32;;;2.90;;
55869;SDS011;41790;50.940;4.560;2024-01-30T09:17:38;3.67;;;2.60;;
55869;SDS011;41790;50.940;4.560;2024-01-30T09:20:04;3.80;;;2.03;;
55869;SDS011;41790;50.940;4.560;2024-01-30T09:22:30;3.35;;;2.33;;
55869;SDS011;41790;50.940;4.560;2024-01-30T09:24:56;4.57;;;2.70;;
55869;SDS011;41790;50.940;4.560;2024-01-30T09:27:22;6.72;;;3.10;;
55869;SDS011;41790;50.940;4.560;2024-01-30T09:29:48;3.30;;;2.60;;
55869;SDS011;41790;50.940;4.560;2024-01-30T09:32:14;3.00;;;2.38;;
55869;SDS011;41790;50.940;4.560;2024-01-30T09:34:40;4.68;;;2.72;;
55869;SDS011;41790;50.940;4.560;2024-01-30T09:37:06;6.28;;;2.63;;
55869;SDS011;41790;50.940;4.560;2024-01-30T09:39:32;2.85;;;2.05;;
55869;SDS011;41790;50.940;4.560;2024-01-30T09:44:39;3.03;;;2.13;;
55869;SDS011;41790;50.940;4.560;2024-01-30T09:47:09;5.15;;;2.70;;
55869;SDS011;41790;50.940;4.560;2024-01-30T09:49:35;2.75;;;1.90;;
55869;SDS011;41790;50.940;4.560;2024-01-30T09:52:07;7.43;;;2.25;;
55869;SDS011;41790;50.940;4.560;2024-01-30T09:54:33;5.38;;;2.22;;
55869;SDS011;41790;50.940;4.560;2024-01-30T09:57:00;5.15;;;2.45;;
55869;SDS011;41790;50.940;4.560;2024-01-30T09:59:26;5.53;;;2.70;;
55869;SDS011;41790;50.940;4.560;2024-01-30T10:01:52;4.07;;;2.38;;
55869;SDS011;41790;50.940;4.560;2024-01-30T10:04:17;3.70;;;2.45;;
55869;SDS011;41790;50.940;4.560;2024-01-30T10:06:43;7.03;;;2.80;;
55869;SDS011;41790;50.940;4.560;2024-01-30T10:09:09;5.57;;;2.22;;
55869;SDS011;41790;50.940;4.560;2024-01-30T10:11:36;4.22;;;2.10;;
55869;SDS011;41790;50.940;4.560;2024-01-30T10:14:02;4.20;;;2.15;;
55869;SDS011;41790;50.940;4.560;2024-01-30T10:16:28;5.07;;;2.40;;
55869;SDS011;41790;50.940;4.560;2024-01-30T10:18:53;3.15;;;2.20;;
55869;SDS011;41790;50.940;4.560;2024-01-30T10:21:19;3.70;;;2.30;;
55869;SDS011;41790;50.940;4.560;2024-01-30T10:23:45;4.63;;;2.80;;
55869;SDS011;41790;50.940;4.560;2024-01-30T10:26:11;7.22;;;2.95;;
55869;SDS011;41790;50.940;4.560;2024-01-30T10:28:37;3.42;;;2.42;;
55869;SDS011;41790;50.940;4.560;2024-01-30T10:31:03;6.45;;;2.90;;
55869;SDS011;41790;50.940;4.560;2024-01-30T10:33:29;3.90;;;2.40;;
55869;SDS011;41790;50.940;4.560;2024-01-30T10:36:04;5.18;;;2.85;;
55869;SDS011;41790;50.940;4.560;2024-01-30T10:38:31;4.63;;;2.90;;
55869;SDS011;41790;50.940;4.560;2024-01-30T10:40:58;4.75;;;2.30;;
55869;SDS011;41790;50.940;4.560;2024-01-30T10:43:33;9.38;;;4.63;;
55869;SDS011;41790;50.940;4.560;2024-01-30T10:48:43;2.97;;;2.10;;
55869;SDS011;41790;50.940;4.560;2024-01-30T10:51:11;4.63;;;2.92;;
55869;SDS011;41790;50.940;4.560;2024-01-30T10:53:39;6.72;;;2.45;;
55869;SDS011;41790;50.940;4.560;2024-01-30T10:56:06;3.58;;;1.95;;
55869;SDS011;41790;50.940;4.560;2024-01-30T10:58:33;4.22;;;2.20;;
55869;SDS011;41790;50.940;4.560;2024-01-30T11:00:59;3.78;;;2.42;;
55869;SDS011;41790;50.940;4.560;2024-01-30T11:03:25;3.08;;;2.65;;
55869;SDS011;41790;50.940;4.560;2024-01-30T11:05:51;6.25;;;2.65;;
55869;SDS011;41790;50.940;4.560;2024-01-30T11:08:24;5.90;;;3.08;;
55869;SDS011;41790;50.940;4.560;2024-01-30T11:10:55;3.90;;;2.03;;
55869;SDS011;41790;50.940;4.560;2024-01-30T11:13:22;5.82;;;2.10;;
55869;SDS011;41790;50.940;4.560;2024-01-30T11:15:55;5.30;;;3.15;;
55869;SDS011;41790;50.940;4.560;2024-01-30T11:18:25;4.57;;;1.80;;
55869;SDS011;41790;50.940;4.560;2024-01-30T11:20:55;3.72;;;2.50;;
55869;SDS011;41790;50.940;4.560;2024-01-30T11:23:23;4.32;;;1.65;;
55869;SDS011;41790;50.940;4.560;2024-01-30T11:25:49;2.95;;;1.85;;
55869;SDS011;41790;50.940;4.560;2024-01-30T11:28:17;2.58;;;1.38;;
55869;SDS011;41790;50.940;4.560;2024-01-30T11:30:43;1.30;;;1.20;;
55869;SDS011;41790;50.940;4.560;2024-01-30T11:33:12;2.92;;;1.10;;
55869;SDS011;41790;50.940;4.560;2024-01-30T11:35:40;1.75;;;1.08;;
55869;SDS011;41790;50.940;4.560;2024-01-30T11:38:10;2.50;;;1.48;;
55869;SDS011;41790;50.940;4.560;2024-01-30T11:40:38;1.92;;;1.40;;
55869;SDS011;41790;50.940;4.560;2024-01-30T11:43:05;2.22;;;1.13;;
55869;SDS011;41790;50.940;4.560;2024-01-30T11:45:32;6.70;;;1.50;;
55869;SDS011;41790;50.940;4.560;2024-01-30T11:47:59;1.95;;;1.35;;
55869;SDS011;41790;50.940;4.560;2024-01-30T11:50:26;2.58;;;1.45;;
55869;SDS011;41790;50.940;4.560;2024-01-30T11:52:53;2.42;;;1.48;;
55869;SDS011;41790;50.940;4.560;2024-01-30T11:55:19;3.60;;;1.45;;
55869;SDS011;41790;50.940;4.560;2024-01-30T11:57:45;1.75;;;1.08;;
55869;SDS011;41790;50.940;4.560;2024-01-30T12:00:17;2.58;;;1.05;;
55869;SDS011;41790;50.940;4.560;2024-01-30T12:02:44;1.08;;;0.60;;
55869;SDS011;41790;50.940;4.560;2024-01-30T12:05:14;1.42;;;0.60;;
55869;SDS011;41790;50.940;4.560;2024-01-30T12:07:40;0.80;;;0.50;;
55869;SDS011;41790;50.940;4.560;2024-01-30T12:10:08;1.35;;;0.50;;
55869;SDS011;41790;50.940;4.560;2024-01-30T12:12:34;0.50;;;0.50;;
55869;SDS011;41790;50.940;4.560;2024-01-30T12:15:00;0.70;;;0.50;;
55869;SDS011;41790;50.940;4.560;2024-01-30T12:17:30;0.45;;;0.45;;
55869;SDS011;41790;50.940;4.560;2024-01-30T12:22:29;4.10;;;0.80;;
55869;SDS011;41790;50.940;4.560;2024-01-30T12:24:55;2.45;;;0.63;;
55869;SDS011;41790;50.940;4.560;2024-01-30T12:27:21;1.15;;;0.80;;
55869;SDS011;41790;50.940;4.560;2024-01-30T12:29:46;1.77;;;1.10;;
55869;SDS011;41790;50.940;4.560;2024-01-30T12:32:15;1.92;;;1.25;;
55869;SDS011;41790;50.940;4.560;2024-01-30T12:34:42;0.60;;;0.60;;
55869;SDS011;41790;50.940;4.560;2024-01-30T12:37:07;2.97;;;1.45;;
55869;SDS011;41790;50.940;4.560;2024-01-30T12:39:34;3.83;;;1.40;;
55869;SDS011;41790;50.940;4.560;2024-01-30T12:42:00;2.53;;;1.23;;
55869;SDS011;41790;50.940;4.560;2024-01-30T12:44:28;1.30;;;0.80;;
55869;SDS011;41790;50.940;4.560;2024-01-30T12:46:54;1.63;;;1.08;;
55869;SDS011;41790;50.940;4.560;2024-01-30T12:49:20;1.60;;;0.77;;
55869;SDS011;41790;50.940;4.560;2024-01-30T12:51:46;2.58;;;1.13;;
55869;SDS011;41790;50.940;4.560;2024-01-30T12:54:12;2.05;;;0.88;;
55869;SDS011;41790;50.940;4.560;2024-01-30T12:56:38;0.95;;;0.70;;
55869;SDS011;41790;50.940;4.560;2024-01-30T12:59:04;6.25;;;1.00;;
55869;SDS011;41790;50.940;4.560;2024-01-30T13:01:29;1.40;;;0.68;;
55869;SDS011;41790;50.940;4.560;2024-01-30T13:03:55;1.20;;;0.77;;
55869;SDS011;41790;50.940;4.560;2024-01-30T13:06:22;4.18;;;0.70;;
55869;SDS011;41790;50.940;4.560;2024-01-30T13:08:48;0.77;;;0.63;;
55869;SDS011;41790;50.940;4.560;2024-01-30T13:11:13;1.08;;;0.60;;
55869;SDS011;41790;50.940;4.560;2024-01-30T13:13:39;1.95;;;1.08;;
55869;SDS011;41790;50.940;4.560;2024-01-30T13:16:05;2.78;;;0.80;;
55869;SDS011;41790;50.940;4.560;2024-01-30T13:18:31;0.50;;;0.50;;
55869;SDS011;41790;50.940;4.560;2024-01-30T13:20:56;1.98;;;0.70;;
55869;SDS011;41790;50.940;4.560;2024-01-30T13:23:22;1.52;;;0.52;;
55869;SDS011;41790;50.940;4.560;2024-01-30T13:25:48;4.65;;;0.73;;
55869;SDS011;41790;50.940;4.560;2024-01-30T13:28:14;3.53;;;0.80;;
55869;SDS011;41790;50.940;4.560;2024-01-30T13:30:39;2.03;;;0.90;;
55869;SDS011;41790;50.940;4.560;2024-01-30T13:33:05;1.73;;;0.80;;
55869;SDS011;41790;50.940;4.560;2024-01-30T13:35:31;1.30;;;0.93;;
55869;SDS011;41790;50.940;4.560;2024-01-30T13:37:57;1.75;;;0.75;;
55869;SDS011;41790;50.940;4.560;2024-01-30T13:40:23;2.65;;;0.80;;
55869;SDS011;41790;50.940;4.560;2024-01-30T13:42:48;2.85;;;1.00;;
55869;SDS011;41790;50.940;4.560;2024-01-30T13:45:14;1.92;;;0.80;;
55869;SDS011;41790;50.940;4.560;2024-01-30T13:47:40;1.50;;;1.02;;
55869;SDS011;41790;50.940;4.560;2024-01-30T13:50:06;1.13;;;0.60;;
55869;SDS011;41790;50.940;4.560;2024-01-30T13:52:33;1.85;;;0.80;;
55869;SDS011;41790;50.940;4.560;2024-01-30T13:54:58;5.60;;;0.70;;
55869;SDS011;41790;50.940;4.560;2024-01-30T13:57:24;0.93;;;0.50;;
55869;SDS011;41790;50.940;4.560;2024-01-30T13:59:50;5.68;;;0.80;;
55869;SDS011;41790;50.940;4.560;2024-01-30T14:02:16;5.03;;;1.00;;
55869;SDS011;41790;50.940;4.560;2024-01-30T14:04:41;3.05;;;0.55;;
55869;SDS011;41790;50.940;4.560;2024-01-30T14:07:08;1.15;;;0.80;;
55869;SDS011;41790;50.940;4.560;2024-01-30T14:09:34;1.60;;;0.70;;
55869;SDS011;41790;50.940;4.560;2024-01-30T14:12:00;1.52;;;1.02;;
55869;SDS011;41790;50.940;4.560;2024-01-30T14:14:26;4.68;;;1.23;;
55869;SDS011;41790;50.940;4.560;2024-01-30T14:16:52;2.50;;;0.68;;
55869;SDS011;41790;50.940;4.560;2024-01-30T14:19:18;2.28;;;0.93;;
55869;SDS011;41790;50.940;4.560;2024-01-30T14:21:43;3.10;;;0.98;;
55869;SDS011;41790;50.940;4.560;2024-01-30T14:24:09;1.88;;;1.02;;
55869;SDS011;41790;50.940;4.560;2024-01-30T14:26:35;3.95;;;1.13;;
55869;SDS011;41790;50.940;4.560;2024-01-30T14:29:01;6.97;;;1.35;;
55869;SDS011;41790;50.940;4.560;2024-01-30T14:31:27;1.23;;;0.77;;
55869;SDS011;41790;50.940;4.560;2024-01-30T14:33:53;2.22;;;1.10;;
55869;SDS011;41790;50.940;4.560;2024-01-30T14:36:20;4.38;;;1.08;;
55869;SDS011;41790;50.940;4.560;2024-01-30T14:38:45;3.97;;;1.17;;
55869;SDS011;41790;50.940;4.560;2024-01-30T14:41:11;4.18;;;1.05;;
55869;SDS011;41790;50.940;4.560;2024-01-30T14:43:37;3.80;;;1.48;;
55869;SDS011;41790;50.940;4.560;2024-01-30T14:46:02;2.97;;;1.17;;
55869;SDS011;41790;50.940;4.560;2024-01-30T14:48:31;2.65;;;0.80;;
55869;SDS011;41790;50.940;4.560;2024-01-30T14:50:57;3.63;;;0.95;;